Details From TJSJ - San Juan - Luis Munoz Marin Intl
To TLPL - St. Lucia/Hewanorra Intl
Flight Number -
Tags decoded
Created
Modified
Stats Distance 422 nm / 782 km
Max Altitude 0 ft / 0 m
Waypoints 8
Social Downloads 1
Likes 0
Share VATSIM

Download

Looking for another format? Having issues loading an existing format? Contact us
Advertisement - Login to hide

Notes

Requested: TJSJ COY A555 ILURI UA555 FOF A324 KISES TLPL

Route

TJSJ COY A555 DUNTA UA555 FOF KISES TLPL

ID Type Via Altitude Latitude Longitude Leg Dist Tot Dist Heading (true) Name
O TJSJ APT - 0 ft / 0 m 18.43878˚ -66.00202˚ - 0 nm - San Juan - Luis Munoz Marin Intl
COY VOR - 0 ft / 0 m 17.73444˚ -64.70072˚ 85 nm 85 nm 119° / 120° ST CROIX VOR-DME
PORQE FIX A555 (AWY-HI) 0 ft / 0 m 17.15999˚ -64.01449˚ 52 nm 137 nm 131° / 131° -
ILURI FIX A555 (AWY-LO) 0 ft / 0 m 16.30000˚ -63.00000˚ 77 nm 215 nm 131° / 132° -
DUNTA FIX A555 (AWY-LO) 0 ft / 0 m 15.60889˚ -62.19306˚ 62 nm 278 nm 132° / 132° -
FOF NDB UA555 (AWY-HI) 0 ft / 0 m 14.58908˚ -61.00131˚ 92 nm 370 nm 131° / 132° MARTINIQUE NDB
KISES FIX - 0 ft / 0 m 14.18633˚ -61.00119˚ 24 nm 394 nm 180° / 180° -
O TLPL APT - 0 ft / 0 m 13.73319˚ -60.95260˚ 27 nm 422 nm 174° / 174° St. Lucia/Hewanorra Intl

Altitude Profile

Advertisement - Login to hide

Weather


0- 5 10 15 20 25 30 35+ Temperature / ° C

Clouds and Precipitation
Forecast for 2017-12-13 06:00 UTC. Updated an hour ago

Ground ~20,000 ft ~40,000 ft Winds

TJSJ

Details ICAO TJSJ (SJU)
Name San Juan - Luis Munoz Marin Intl
Region USA (Puerto Rico)
Timezone America/Puerto_Rico (UTC-4.0)
Stats Elevation 9 ft / 3 m (AMSL)
Location 18.438777° -66.002018°
Runways 2
Magnetic Variation 13.221° W

METAR

TJSJ 130156Z 24005KT 10SM FEW080 27/23 A2996

Decode

TAF

TAF TAF TJSJ 122320Z 1300/1324 11005KT P6SM FEW060 FM131400 VRB03KT P6SM SCT030 FM131600 32005KT P6SM SCT030 FM131900 02007KT P6SM BKN040

Decode

Departure Runways

ID Width Length Bearing (true) Bearing (mag) Surface Threshold Offset Overrun Length
08 200 ft / 61 m 9,781 ft / 2,981 m 66.87° 80.09° Asphalt 0 ft / 0 m 200 ft / 61 m
10 151 ft / 46 m 8,007 ft / 2,440 m 90.14° 103.36° Concrete 0 ft / 0 m 200 ft / 61 m
26 200 ft / 61 m 9,781 ft / 2,981 m 246.88° 260.10° Asphalt 0 ft / 0 m 230 ft / 70 m
28 151 ft / 46 m 8,007 ft / 2,440 m 270.15° 283.37° Concrete 0 ft / 0 m 200 ft / 61 m

TLPL

Details ICAO TLPL (UVF)
Name St. Lucia/Hewanorra Intl
Region Saint Lucia
Timezone America/St_Lucia (UTC-4.0)
Stats Elevation 14 ft / 4 m (AMSL)
Location 13.733194° -60.952599°
Runways 1
Magnetic Variation 15.092° W

METAR

TLPL 130200Z 02005KT 9999 FEW024 22/22 Q1014 NOSIG

Decode

TAF

Not found

Destination Runways

ID Width Length Bearing (true) Bearing (mag) Surface Threshold Offset Overrun Length
10 148 ft / 45 m 8,979 ft / 2,737 m 90.01° 105.10° Asphalt 0 ft / 0 m 200 ft / 61 m
28 148 ft / 45 m 8,979 ft / 2,737 m 270.01° 285.10° Asphalt 459 ft / 140 m 0 ft / 0 m

Popular Alternatives